Heiner, Kentucky
Current Conditions -  °F | °C
As of 9:53 PM on Friday 21 Nov 2014 (Local Time) from KJKL Reporting Station
Clear Clear  
Wind Chill: 32°   Ceiling: Unl
Heat Index: 32°   Visibility: 10mi
Dew Point: 10°   Wind: 3mph
Humidity: 40%   Direction: 90°E
Pressure: 30.4"   Gusts: NA
Location:  37.3318°N, 83.1697°W
Report Text: KJKL 220253Z AUTO 09003KT 10SM CLR 00/M12 A3040 RMK AO2 SLP308 T00001122 56008
Loading
Personal Weather Stations






























Interactive Weather Map New forecast layout! Learn more

10-Day Weather Forecast

Advertisements
Track Severe Weather on mobile